createdAt,value
2018-04-12T00:01:46.934Z,52.60
2018-04-12T00:04:20.916Z,52.20
2018-04-12T00:06:53.492Z,52.20
2018-04-12T00:09:26.521Z,52.00
2018-04-12T00:11:59.961Z,52.70
2018-04-12T00:14:32.799Z,52.00
2018-04-12T00:17:05.192Z,52.00
2018-04-12T00:19:40.097Z,51.90
2018-04-12T00:22:12.987Z,51.90
2018-04-12T00:24:45.375Z,52.00
2018-04-12T00:27:18.668Z,52.20
2018-04-12T00:29:51.344Z,52.20
2018-04-12T00:32:24.030Z,52.30
2018-04-12T00:34:57.143Z,52.20
2018-04-12T00:37:30.001Z,52.20
2018-04-12T00:40:02.554Z,52.40
2018-04-12T00:42:35.094Z,52.70
2018-04-12T00:45:07.639Z,52.40
2018-04-12T00:47:40.233Z,52.70
2018-04-12T00:50:12.681Z,52.50
2018-04-12T00:52:45.477Z,52.50
2018-04-12T00:55:18.805Z,52.80
2018-04-12T00:57:51.333Z,52.80
2018-04-12T01:00:23.816Z,52.60
2018-04-12T01:02:56.305Z,52.60
2018-04-12T01:05:29.689Z,53.20
2018-04-12T01:08:02.559Z,52.60
2018-04-12T01:10:35.840Z,52.50
2018-04-12T01:13:08.254Z,52.30
2018-04-12T01:15:40.761Z,52.00
2018-04-12T01:18:13.229Z,52.50
2018-04-12T01:20:45.852Z,51.90
2018-04-12T01:23:18.240Z,51.80
2018-04-12T01:25:51.382Z,51.40
2018-04-12T01:28:24.009Z,51.40
2018-04-12T01:30:56.454Z,51.30
2018-04-12T01:33:28.872Z,51.30
2018-04-12T01:36:02.092Z,51.80
2018-04-12T01:38:34.768Z,51.80
2018-04-12T01:41:08.104Z,52.30
2018-04-12T01:43:40.878Z,52.20
2018-04-12T01:46:13.319Z,52.20
2018-04-12T01:48:46.546Z,52.40
2018-04-12T01:51:19.336Z,52.30
2018-04-12T01:53:52.014Z,52.30
2018-04-12T01:56:24.382Z,52.50
2018-04-12T01:58:56.813Z,52.30
2018-04-12T02:01:29.429Z,52.00
2018-04-12T02:04:02.060Z,52.30
2018-04-12T02:06:34.538Z,51.90
2018-04-12T02:09:07.892Z,52.40
2018-04-12T02:11:40.615Z,51.90
2018-04-12T02:14:13.058Z,51.90
2018-04-12T02:16:47.138Z,51.70
2018-04-12T02:19:19.928Z,51.60
2018-04-12T02:21:53.219Z,52.00
2018-04-12T02:24:26.365Z,51.80
2018-04-12T02:26:58.877Z,51.80
2018-04-12T02:29:31.372Z,52.00
2018-04-12T02:32:04.588Z,52.40
2018-04-12T02:34:38.011Z,52.60
2018-04-12T02:37:10.909Z,52.50
2018-04-12T02:39:43.464Z,53.50
2018-04-12T02:42:15.940Z,53.00
2018-04-12T02:44:48.363Z,53.10
2018-04-12T02:47:20.800Z,53.30
2018-04-12T02:49:54.997Z,53.80
2018-04-12T02:52:27.716Z,53.80
2018-04-12T02:55:00.253Z,54.00
2018-04-12T02:57:32.738Z,53.80
2018-04-12T03:00:06.118Z,53.70
2018-04-12T03:02:39.466Z,54.20
2018-04-12T03:05:12.089Z,53.80
2018-04-12T03:07:45.255Z,53.90
2018-04-12T03:10:18.043Z,53.80
2018-04-12T03:12:50.471Z,53.80
2018-04-12T03:15:23.135Z,53.90
2018-04-12T03:17:55.643Z,54.10
2018-04-12T03:20:28.232Z,54.40
2018-04-12T03:23:00.695Z,54.80
2018-04-12T03:25:33.217Z,55.60
2018-04-12T03:28:05.853Z,56.10
2018-04-12T03:30:39.060Z,57.30
2018-04-12T03:33:11.831Z,56.70
2018-04-12T03:35:44.234Z,57.30
2018-04-12T03:38:17.467Z,58.60
2018-04-12T03:40:50.151Z,58.00
2018-04-12T03:43:23.405Z,58.00
2018-04-12T03:45:56.230Z,58.00
2018-04-12T03:48:28.734Z,58.10
2018-04-12T03:51:02.019Z,56.50
2018-04-12T03:53:35.266Z,54.90
2018-04-12T03:56:08.001Z,54.80
2018-04-12T03:58:40.551Z,54.40
2018-04-12T04:01:13.009Z,54.40
2018-04-12T04:03:45.557Z,53.90
2018-04-12T04:06:18.772Z,54.00
2018-04-12T04:08:51.634Z,54.00
2018-04-12T04:11:24.854Z,54.10
2018-04-12T04:13:57.813Z,54.10
2018-04-12T04:16:48.733Z,53.70
2018-04-12T04:19:40.576Z,53.50
2018-04-12T04:22:13.887Z,53.40
2018-04-12T04:24:47.060Z,52.80
2018-04-12T04:27:19.711Z,52.80
2018-04-12T04:29:53.101Z,52.50
2018-04-12T04:32:25.710Z,51.80
2018-04-12T04:34:58.206Z,51.70
2018-04-12T04:37:30.740Z,51.60
2018-04-12T04:40:04.778Z,51.40
2018-04-12T04:42:37.374Z,51.40
2018-04-12T04:45:10.815Z,51.60
2018-04-12T04:47:43.349Z,51.60
2018-04-12T04:50:16.669Z,51.80
2018-04-12T04:52:49.164Z,51.90
2018-04-12T04:55:21.601Z,52.10
2018-04-12T04:57:54.893Z,52.70
2018-04-12T05:00:27.718Z,52.40
2018-04-12T05:03:01.030Z,52.70
2018-04-12T05:05:34.299Z,52.80
2018-04-12T05:08:07.071Z,52.80
2018-04-12T05:10:39.434Z,52.90
2018-04-12T05:13:11.849Z,52.90
2018-04-12T05:15:44.334Z,52.90
2018-04-12T05:18:16.733Z,53.20
2018-04-12T05:20:49.269Z,52.90
2018-04-12T05:23:21.746Z,52.50
2018-04-12T05:25:54.131Z,52.40
2018-04-12T05:28:26.518Z,52.00
2018-04-12T05:31:00.032Z,51.70
2018-04-12T05:33:32.935Z,51.60
2018-04-12T05:36:05.508Z,50.50
2018-04-12T05:38:37.884Z,49.80
2018-04-12T05:41:10.395Z,49.00
2018-04-12T05:43:42.983Z,47.50
2018-04-12T05:46:15.612Z,46.00
2018-04-12T05:48:48.932Z,45.80
2018-04-12T05:51:22.162Z,43.50
2018-04-12T05:53:54.893Z,43.50
2018-04-12T05:56:28.147Z,43.30
2018-04-12T05:59:01.261Z,42.80
2018-04-12T06:01:34.397Z,41.40
2018-04-12T06:04:07.749Z,40.80
2018-04-12T06:06:41.358Z,39.90
2018-04-12T06:09:14.203Z,39.90
2018-04-12T06:11:47.590Z,38.20
2018-04-12T06:14:20.303Z,37.80
2018-04-12T06:16:53.492Z,37.00
2018-04-12T06:19:25.992Z,36.90
2018-04-12T06:21:59.398Z,37.10
2018-04-12T06:24:32.899Z,36.50
2018-04-12T06:27:05.355Z,35.90
2018-04-12T06:29:37.872Z,34.40
2018-04-12T06:32:11.871Z,33.90
2018-04-12T06:34:45.125Z,33.20
2018-04-12T06:37:17.975Z,33.20
2018-04-12T06:39:50.515Z,33.30
2018-04-12T06:42:23.158Z,32.90
2018-04-12T06:44:56.680Z,32.80
2018-04-12T06:47:29.936Z,34.00
2018-04-12T06:50:03.687Z,32.70
2018-04-12T06:52:36.994Z,32.80
2018-04-12T06:55:09.661Z,32.70
2018-04-12T06:57:42.179Z,32.70
2018-04-12T07:00:14.914Z,32.50
2018-04-12T07:02:47.234Z,31.30
2018-04-12T07:05:20.389Z,31.30
2018-04-12T07:07:53.102Z,31.30
2018-04-12T07:10:25.544Z,31.30
2018-04-12T07:12:57.955Z,31.00
2018-04-12T07:15:30.380Z,31.90
2018-04-12T07:18:02.975Z,31.00
2018-04-12T07:20:36.347Z,30.70
2018-04-12T07:23:09.637Z,30.90
2018-04-12T07:25:42.536Z,30.90
2018-04-12T07:28:15.054Z,30.20
2018-04-12T07:30:48.310Z,30.30
2018-04-12T07:33:21.177Z,29.70
2018-04-12T07:35:54.673Z,30.10
2018-04-12T07:38:27.093Z,29.40
2018-04-12T07:40:59.817Z,30.00
2018-04-12T07:43:33.215Z,30.00
2018-04-12T07:46:05.804Z,30.10
2018-04-12T07:48:38.985Z,29.50
2018-04-12T07:51:11.447Z,30.00
2018-04-12T07:53:44.803Z,30.40
2018-04-12T07:56:17.369Z,32.20
2018-04-12T07:58:56.693Z,31.80
2018-04-12T08:01:29.308Z,31.60
2018-04-12T08:04:01.913Z,30.10
2018-04-12T08:06:34.456Z,31.40
2018-04-12T08:09:07.831Z,30.40
2018-04-12T08:11:41.179Z,30.20
2018-04-12T08:14:13.605Z,29.60
2018-04-12T08:16:47.780Z,29.90
2018-04-12T08:19:20.458Z,29.80
2018-04-12T08:21:53.743Z,28.50
2018-04-12T08:24:26.525Z,28.30
2018-04-12T08:26:59.884Z,27.70
2018-04-12T08:29:33.254Z,27.60
2018-04-12T08:32:06.054Z,27.30
2018-04-12T08:34:39.473Z,28.00
2018-04-12T08:37:12.745Z,27.80
2018-04-12T08:39:45.222Z,26.70
2018-04-12T08:42:17.785Z,26.20
2018-04-12T08:44:52.711Z,26.50
2018-04-12T08:47:25.440Z,26.40
2018-04-12T08:49:57.818Z,25.90
2018-04-12T08:52:31.063Z,27.40
2018-04-12T08:55:04.429Z,27.10
2018-04-12T08:57:37.077Z,27.10
2018-04-12T09:00:09.542Z,27.70
2018-04-12T09:02:42.749Z,27.70
2018-04-12T09:05:15.365Z,27.70
2018-04-12T09:07:47.987Z,29.10
2018-04-12T09:10:21.225Z,29.80
2018-04-12T09:12:53.885Z,29.80
2018-04-12T09:15:26.398Z,29.80
2018-04-12T09:17:59.771Z,30.50
2018-04-12T09:20:33.237Z,31.10
2018-04-12T09:23:06.002Z,31.00
2018-04-12T09:25:38.524Z,30.80
2018-04-12T09:28:11.077Z,30.00
2018-04-12T09:30:44.458Z,30.80
2018-04-12T09:33:17.792Z,30.60
2018-04-12T09:35:50.351Z,31.60
2018-04-12T09:38:22.820Z,31.20
2018-04-12T11:03:05.682Z,31.30
2018-04-12T11:05:38.963Z,30.40
2018-04-12T11:08:11.645Z,30.30
2018-04-12T11:10:44.106Z,31.60
2018-04-12T11:13:16.609Z,30.30
2018-04-12T11:15:49.770Z,30.30
2018-04-12T11:18:22.536Z,30.30
2018-04-12T11:20:55.893Z,30.70
2018-04-12T11:23:28.525Z,30.70
2018-04-12T11:26:01.876Z,30.70
2018-04-12T11:28:35.498Z,30.60
2018-04-12T11:31:08.211Z,30.00
2018-04-12T11:33:41.292Z,30.30
2018-04-12T11:36:14.093Z,30.30
2018-04-12T11:38:46.512Z,31.90
2018-04-12T11:41:19.800Z,29.90
2018-04-12T11:43:52.245Z,30.60
2018-04-12T11:46:26.397Z,29.90
2018-04-12T11:48:59.990Z,30.00
2018-04-12T11:51:33.226Z,29.50
2018-04-12T11:54:06.791Z,28.90
2018-04-12T11:56:40.127Z,28.00
2018-04-12T11:59:12.929Z,27.30
2018-04-12T12:01:45.512Z,27.50
2018-04-12T12:04:19.622Z,25.90
2018-04-12T12:06:52.419Z,25.90
2018-04-12T12:09:24.999Z,25.10
2018-04-12T12:11:59.144Z,24.40
2018-04-12T12:14:31.781Z,24.80
2018-04-12T12:17:04.206Z,24.20
2018-04-12T12:19:37.655Z,24.30
2018-04-12T12:22:10.087Z,24.30
2018-04-12T12:24:42.605Z,24.40
2018-04-12T12:27:15.800Z,23.60
2018-04-12T12:29:48.447Z,23.50
2018-04-12T12:32:20.962Z,24.10
2018-04-12T12:34:54.347Z,24.30
2018-04-12T12:37:28.497Z,23.20
2018-04-12T12:40:01.331Z,23.20
2018-04-12T12:42:33.916Z,24.20
2018-04-12T12:45:07.339Z,24.30
2018-04-12T12:47:39.709Z,24.60
2018-04-12T12:50:12.103Z,23.80
2018-04-12T12:52:46.165Z,23.90
2018-04-12T12:55:19.073Z,23.90
2018-04-12T12:57:52.387Z,24.00
2018-04-12T13:00:24.980Z,22.60
2018-04-12T13:02:58.241Z,23.20
2018-04-12T13:05:32.373Z,23.70
2018-04-12T13:08:04.920Z,23.10
2018-04-12T13:10:38.329Z,23.30
2018-04-12T13:13:11.702Z,23.00
2018-04-12T13:15:44.957Z,23.20
2018-04-12T13:18:17.482Z,23.60
2018-04-12T13:20:50.077Z,23.50
2018-04-12T13:23:23.438Z,25.20
2018-04-12T13:25:57.689Z,24.90
2018-04-12T13:28:30.203Z,24.80
2018-04-12T13:31:03.671Z,24.50
2018-04-12T13:33:37.723Z,24.30
2018-04-12T13:36:10.370Z,24.30
2018-04-12T13:38:42.831Z,24.90
2018-04-12T13:41:15.373Z,24.40
2018-04-12T13:43:48.817Z,24.10
2018-04-12T13:46:21.329Z,24.20
2018-04-12T13:48:54.788Z,24.30
2018-04-12T13:51:27.487Z,24.30
2018-04-12T13:54:00.901Z,24.80
2018-04-12T13:56:33.426Z,24.30
2018-04-12T13:59:07.434Z,25.30
2018-04-12T14:01:40.216Z,25.30
2018-04-12T14:04:13.530Z,24.80
2018-04-12T14:06:46.069Z,25.20
2018-04-12T14:09:18.535Z,25.10
2018-04-12T14:11:51.017Z,25.20
2018-04-12T14:14:23.515Z,25.10
2018-04-12T14:16:56.925Z,25.00
2018-04-12T14:19:30.295Z,25.30
2018-04-12T14:22:02.811Z,24.90
2018-04-12T14:24:35.222Z,25.10
2018-04-12T14:27:07.663Z,25.80
2018-04-12T14:29:41.710Z,25.90
2018-04-12T14:32:14.646Z,25.90
2018-04-12T14:34:47.801Z,25.60
2018-04-12T14:37:21.139Z,25.90
2018-04-12T14:39:54.193Z,25.90
2018-04-12T14:42:27.626Z,25.80
2018-04-12T14:45:00.797Z,26.30
2018-04-12T14:47:33.710Z,26.30
2018-04-12T14:50:06.331Z,25.70
2018-04-12T14:52:39.606Z,26.20
2018-04-12T14:55:12.203Z,25.70
2018-04-12T14:57:44.840Z,25.60
2018-04-12T15:00:18.117Z,25.70
2018-04-12T15:02:50.711Z,25.80
2018-04-12T15:05:23.963Z,25.70
2018-04-12T15:07:57.714Z,26.10
2018-04-12T15:10:30.163Z,26.10
2018-04-12T15:13:02.701Z,26.20
2018-04-12T15:15:35.990Z,26.20
2018-04-12T15:18:09.372Z,26.30
2018-04-12T15:20:43.394Z,27.00
2018-04-12T15:23:16.063Z,26.90
2018-04-12T15:25:49.425Z,26.70
2018-04-12T15:28:21.985Z,27.30
2018-04-12T15:30:54.421Z,27.30
2018-04-12T15:33:26.940Z,27.30
2018-04-12T15:36:00.169Z,27.50
2018-04-12T15:38:32.990Z,27.50
2018-04-12T15:41:05.465Z,28.40
2018-04-12T15:43:38.782Z,27.90
2018-04-12T15:46:11.277Z,27.80
2018-04-12T15:48:44.425Z,27.60
2018-04-12T15:51:17.056Z,27.60
2018-04-12T15:53:49.623Z,27.50
2018-04-12T15:56:23.730Z,28.10
2018-04-12T15:58:56.482Z,28.10
2018-04-12T16:01:29.009Z,28.20
2018-04-12T16:04:01.477Z,27.80
2018-04-12T16:06:34.695Z,29.10
2018-04-12T16:09:07.399Z,28.50
2018-04-12T16:11:40.052Z,28.70
2018-04-12T16:14:13.465Z,29.60
2018-04-12T16:16:46.171Z,29.00
2018-04-12T16:19:18.627Z,28.90
2018-04-12T16:21:51.181Z,28.60
2018-04-12T16:24:24.316Z,28.90
2018-04-12T16:26:57.177Z,28.90
2018-04-12T16:29:30.651Z,28.80
2018-04-12T16:32:04.029Z,28.90
2018-04-12T16:34:37.292Z,29.60
2018-04-12T16:37:10.805Z,29.20
2018-04-12T16:39:43.400Z,29.60
2018-04-12T16:42:15.961Z,30.00
2018-04-12T16:44:48.645Z,30.30
2018-04-12T16:47:21.921Z,30.70
2018-04-12T16:49:56.000Z,31.20
2018-04-12T16:52:29.367Z,31.50
2018-04-12T16:55:02.326Z,31.40
2018-04-12T16:57:34.747Z,32.20
2018-04-12T17:00:07.217Z,32.00
2018-04-12T17:02:39.651Z,31.60
2018-04-12T17:05:12.241Z,32.20
2018-04-12T17:07:46.417Z,31.70
2018-04-12T17:10:20.042Z,31.60
2018-04-12T17:12:52.449Z,31.50
2018-04-12T17:15:32.182Z,31.70
2018-04-12T17:18:04.839Z,32.10
2018-04-12T17:20:37.342Z,32.40
2018-04-12T17:23:11.576Z,32.60
2018-04-12T17:25:44.235Z,32.60
2018-04-12T17:28:16.878Z,32.80
2018-04-12T17:30:50.198Z,33.10
2018-04-12T17:33:24.417Z,33.10
2018-04-12T17:35:57.966Z,33.60
2018-04-12T17:38:30.653Z,33.60
2018-04-12T17:41:04.218Z,33.70
2018-04-12T17:43:37.234Z,33.80
2018-04-12T17:46:09.808Z,34.50
2018-04-12T17:48:43.846Z,34.40
2018-04-12T17:51:16.591Z,34.40
2018-04-12T17:53:50.740Z,34.70
2018-04-12T17:56:23.321Z,34.30
2018-04-12T17:58:56.586Z,34.60
2018-04-12T18:01:30.203Z,35.20
2018-04-12T18:04:02.810Z,35.10
2018-04-12T18:06:36.210Z,35.40
2018-04-12T18:09:08.643Z,35.50
2018-04-12T18:11:41.166Z,36.10
2018-04-12T18:14:15.193Z,37.70
2018-04-12T18:16:48.030Z,37.70
2018-04-12T18:19:22.149Z,37.00
2018-04-12T18:21:55.777Z,37.20
2018-04-12T18:24:28.519Z,37.20
2018-04-12T18:27:01.095Z,37.30
2018-04-12T18:29:33.563Z,37.70
2018-04-12T18:32:06.798Z,38.00
2018-04-12T18:34:39.540Z,38.10
2018-04-12T18:37:12.823Z,39.80
2018-04-12T18:39:45.392Z,39.50
2018-04-12T18:42:18.096Z,38.20
2018-04-12T18:44:51.489Z,38.10
2018-04-12T18:47:23.961Z,39.50
2018-04-12T18:49:56.427Z,40.10
2018-04-12T18:52:30.118Z,37.80
2018-04-12T18:55:03.583Z,37.80
2018-04-12T18:57:37.151Z,37.60
2018-04-12T19:00:10.710Z,38.20
2018-04-12T19:02:44.255Z,38.80
2018-04-12T19:05:19.219Z,38.60
2018-04-12T19:07:53.488Z,38.10
2018-04-12T19:10:27.031Z,38.10
2018-04-12T19:13:00.058Z,38.70
2018-04-12T19:15:34.654Z,39.00
2018-04-12T19:18:08.804Z,39.00
2018-04-12T19:20:42.324Z,39.40
2018-04-12T19:23:26.975Z,39.30
2018-04-12T19:25:59.728Z,39.90
2018-04-12T19:28:32.356Z,40.10
2018-04-12T19:31:04.822Z,40.10
2018-04-12T19:33:38.780Z,41.10
2018-04-12T19:36:12.915Z,40.70
2018-04-12T19:38:46.332Z,40.70
2018-04-12T19:41:18.920Z,40.60
2018-04-12T19:43:53.565Z,40.90
2018-04-12T19:46:28.460Z,41.80
2018-04-12T19:49:01.558Z,41.80
2018-04-12T19:51:34.887Z,42.20
2018-04-12T19:54:09.573Z,43.20
2018-04-12T19:56:43.165Z,43.20
2018-04-12T19:59:16.667Z,43.50
2018-04-12T20:01:49.909Z,44.90
2018-04-12T20:04:25.457Z,44.90
2018-04-12T20:06:58.683Z,44.90
2018-04-12T20:09:31.952Z,45.40
2018-04-12T20:12:06.236Z,47.10
2018-04-12T20:14:39.664Z,46.50
2018-04-12T20:17:12.563Z,47.10
2018-04-12T20:19:46.838Z,47.60
2018-04-12T20:22:19.582Z,47.60
2018-04-12T20:24:52.225Z,48.00
2018-04-12T20:27:27.914Z,47.80
2018-04-12T20:30:01.231Z,47.70
2018-04-12T20:32:34.468Z,47.70
2018-04-12T20:35:08.106Z,49.20
2018-04-12T20:37:40.812Z,49.20
2018-04-12T20:40:14.073Z,47.10
2018-04-12T20:42:46.988Z,47.10
2018-04-12T20:45:19.454Z,46.70
2018-04-12T20:47:52.792Z,49.20
2018-04-12T20:50:25.318Z,49.70
2018-04-12T20:52:58.064Z,48.60
2018-04-12T20:55:31.997Z,49.20
2018-04-12T20:58:05.453Z,49.20
2018-04-12T21:00:38.849Z,49.80
2018-04-12T21:03:12.191Z,49.60
2018-04-12T21:05:45.372Z,50.30
2018-04-12T21:08:18.203Z,50.20
2018-04-12T21:10:52.155Z,50.70
2018-04-12T21:13:25.228Z,50.70
2018-04-12T21:15:58.604Z,51.10
2018-04-12T21:18:31.057Z,51.30
2018-04-12T21:21:04.548Z,51.20
2018-04-12T21:23:38.725Z,52.00
2018-04-12T21:26:11.392Z,51.90
2018-04-12T21:28:44.623Z,51.90
2018-04-12T21:31:17.361Z,51.90
2018-04-12T21:33:50.018Z,52.20
2018-04-12T21:36:22.477Z,52.00
2018-04-12T21:38:56.517Z,54.60
2018-04-12T21:41:29.529Z,54.60
2018-04-12T21:44:02.068Z,55.10
2018-04-12T21:46:34.675Z,54.40
2018-04-12T21:49:08.740Z,54.80
2018-04-12T21:51:41.627Z,54.80
2018-04-12T21:54:14.997Z,54.90
2018-04-12T21:56:47.462Z,54.90
2018-04-12T21:59:19.881Z,55.10
2018-04-12T22:01:52.274Z,55.10
2018-04-12T22:04:24.749Z,55.40
2018-04-12T22:06:57.446Z,56.00
2018-04-12T22:09:31.580Z,56.50
2018-04-12T22:12:04.340Z,56.50
2018-04-12T22:14:37.573Z,56.60
2018-04-12T22:17:10.803Z,56.60
2018-04-12T22:19:43.465Z,56.60
2018-04-12T22:22:15.994Z,56.40
2018-04-12T22:24:49.373Z,56.40
2018-04-12T22:27:22.215Z,56.50
2018-04-12T22:29:56.375Z,55.50
2018-04-12T22:32:29.134Z,55.40
2018-04-12T22:35:01.693Z,55.70
2018-04-12T22:37:35.848Z,56.80
2018-04-12T22:40:08.700Z,56.80
2018-04-12T22:42:42.074Z,56.90
2018-04-12T22:45:15.487Z,57.00
2018-04-12T22:47:48.810Z,57.00
2018-04-12T22:50:22.042Z,56.90
2018-04-12T22:52:54.617Z,57.00
2018-04-12T22:55:27.094Z,57.40
2018-04-12T22:58:00.349Z,57.70
2018-04-12T23:00:33.944Z,57.10
2018-04-12T23:03:07.462Z,55.80
2018-04-12T23:05:40.427Z,55.80
2018-04-12T23:08:13.824Z,56.30
2018-04-12T23:10:46.295Z,57.50
2018-04-12T23:13:18.709Z,57.60
2018-04-12T23:15:51.246Z,57.20
2018-04-12T23:18:24.440Z,57.40
2018-04-12T23:20:57.175Z,57.10
2018-04-12T23:23:29.809Z,57.50
2018-04-12T23:26:02.299Z,57.50
2018-04-12T23:28:34.894Z,58.10
2018-04-12T23:31:08.433Z,57.40
2018-04-12T23:33:40.924Z,57.50
2018-04-12T23:36:14.088Z,57.80
2018-04-12T23:38:46.873Z,57.80
2018-04-12T23:41:19.301Z,56.60
2018-04-12T23:43:52.665Z,56.40
2018-04-12T23:46:25.161Z,56.00
2018-04-12T23:48:57.670Z,55.90
2018-04-12T23:51:30.342Z,56.90
2018-04-12T23:54:02.818Z,56.80
2018-04-12T23:56:36.910Z,57.50
2018-04-12T23:59:17.336Z,56.70
